Latest Coastal Weather Observations for Maroochydore

IDQ60701

Issued at 12:31 am EST Tuesday 6 December 2016 (issued every 10 minutes, with the page automatically refreshed every 10 minutes)

About coastal observations | Map of coastal stations | Coastal observations for QLD | Marine services | Other Formats
Station Details ID: 040861 Name: SUNSHINE COAST AIRPORT Lat: -26.60 Lon: 153.09 Height: 3.3 m
Data from the previous 72 hours. | See also: Recent months at Maroochydore
Date/Time
EST
Temp
°C
Wind Pressure Rain since
9am
mm
Weather Cloud Vis
km
Sea
Height
m
Swell
Dir  Spd
kts
Gust
kts
hPa Trend Height
m
Period
s
Dir
06/12:00am 23.4 N 8 11 1013.8 - 0.0 - Mostly cloudy 10 - - - -
 
Date/Time
EST
Temp
°C
Wind Pressure Rain since
9am
mm
Weather Cloud Vis
km
Sea
Height
m
Swell
Dir  Spd
kts
Gust
kts
hPa Trend Height
m
Period
s
Dir
05/11:30pm 23.8 NNW 9 15 1013.7 - 0.0 - Partly cloudy 10 - - - -
05/11:00pm 24.1 N 13 19 1013.4 - 0.0 - Cloudy 10 - - - -
05/10:30pm 24.1 NNW 11 18 1013.4 - 0.0 - Partly cloudy 10 - - - -
05/10:00pm 24.2 N 12 18 1013.5 - 0.0 - - 10 - - - -
05/09:30pm 24.3 N 12 21 1013.3 - 0.0 - - 10 - - - -
05/09:00pm 24.3 N 11 16 1012.9 - 0.0 - - 10 - - - -
05/08:30pm 24.3 N 12 17 1012.7 - 0.0 - - 10 - - - -
05/08:00pm 23.7 N 12 16 1012.4 - 0.0 - - 10 - - - -
05/07:30pm 23.8 N 13 18 1012.2 - 0.0 - - 10 - - - -
05/07:00pm 23.9 N 16 22 1011.9 - 0.0 - - 10 - - - -
05/06:30pm 24.1 N 17 24 1011.7 - 0.0 - - 10 - - - -
05/06:12pm 24.2 N 18 28 1011.6 - 0.0 - - 10 - - - -
05/06:00pm 24.3 N 20 27 1011.5 - 0.0 - - 10 - - - -
05/05:37pm 24.8 N 20 30 1011.4 - 0.0 - - 10 - - - -
05/05:30pm 24.7 N 21 27 1011.3 - 0.0 - - 10 - - - -
05/05:03pm 25.4 N 19 29 1011.4 - 0.0 - - 10 - - - -
05/05:00pm 25.2 N 20 29 1011.4 - 0.0 - - 10 - - - -
05/04:30pm 25.8 N 18 25 1011.4 - 0.0 - - 10 - - - -
05/04:00pm 26.1 N 20 26 1011.2 - 0.0 - - 10 - - - -
05/03:42pm 26.6 N 19 29 1011.4 - 0.0 - - 10 - - - -
05/03:30pm 26.8 N 19 26 1011.4 - 0.0 - - 10 - - - -
05/03:00pm 27.1 N 19 25 1011.6 - 0.0 - - 10 - - - -
05/02:30pm 27.3 N 19 25 1011.8 - 0.0 - - 10 - - - -
05/02:00pm 27.5 N 19 27 1012.2 - 0.0 - - 10 - - - -
05/01:30pm 28.1 N 18 26 1012.6 - 0.0 - - 10 - - - -
05/01:00pm 27.9 N 19 26 1012.6 - 0.0 - - 10 - - - -
05/12:30pm 28.2 N 18 26 1013.3 - 0.0 - - 10 - - - -
05/12:00pm 28.3 NNE 18 23 1013.7 - 0.0 - - 10 - - - -
05/11:30am 27.9 NNE 19 23 1014.0 - 0.0 - - 10 - - - -
05/11:00am 28.7 NNE 16 23 1014.4 - 0.0 - - 10 - - - -
05/10:30am 28.0 NNE 16 22 1014.7 - 0.0 - - 10 - - - -
05/10:00am 27.4 N 17 22 1014.9 - 0.0 - Partly cloudy 10 - - - -
05/09:30am 26.8 NNE 18 22 1015.2 - 0.0 - Partly cloudy 10 - - - -
05/09:00am 27.0 N 14 19 1015.4 - 0.0 - Mostly clear 10 - - - -
05/08:30am 26.4 N 13 18 1015.6 - 0.0 - Partly cloudy 10 - - - -
05/08:00am 25.9 N 13 17 1015.9 - 0.0 - Partly cloudy 10 - - - -
05/07:48am 25.3 N 9 13 1016.1 - 0.0 - Partly cloudy 10 - - - -
05/07:30am 24.8 N 11 14 1016.1 - 0.0 - Partly cloudy 10 - - - -
05/07:00am 25.2 N 9 14 1016.0 - 0.0 - Partly cloudy 10 - - - -
05/06:56am 25.4 N 9 11 1016.0 - 0.0 - Partly cloudy 10 - - - -
05/06:30am 24.1 NNW 9 12 1016.0 - 0.0 - - 10 - - - -
05/06:00am 23.6 N 9 14 1015.7 - 0.0 - - 10 - - - -
05/05:30am 22.6 N 8 12 1015.6 - 0.0 - - 10 - - - -
05/05:00am 22.3 N 7 10 1015.3 - 0.0 - Partly cloudy 10 - - - -
05/04:30am 21.8 N 8 10 1014.9 - 0.0 - - 10 - - - -
05/04:00am 21.6 N 7 8 1014.5 - 0.0 - - 10 - - - -
05/03:30am 21.8 N 6 8 1014.6 - 0.0 - - 10 - - - -
05/03:00am 21.9 N 5 7 1014.6 - 0.0 - Partly cloudy 10 - - - -
05/02:30am 22.1 N 6 8 1014.6 - 0.0 - - 10 - - - -
05/02:00am 22.4 N 7 12 1014.4 - 0.0 - Partly cloudy 10 - - - -
05/01:30am 22.6 N 8 12 1014.4 - 0.0 - - 10 - - - -
05/01:00am 22.6 N 8 11 1014.5 - 0.0 - - 10 - - - -
05/12:30am 22.6 N 8 11 1014.8 - 0.0 - Partly cloudy 10 - - - -
05/12:02am 22.6 N 7 9 1015.1 - 0.0 - Partly cloudy 10 - - - -
05/12:00am 22.5 N 7 9 1015.1 - 0.0 - Mostly clear 10 - - - -
 
Date/Time
EST
Temp
°C
Wind Pressure Rain since
9am
mm
Weather Cloud Vis
km
Sea
Height
m
Swell
Dir  Spd
kts
Gust
kts
hPa Trend Height
m
Period
s
Dir
04/11:43pm 22.4 N 7 9 1015.1 - 0.0 - Partly cloudy 10 - - - -
04/11:30pm 22.4 N 6 8 1015.1 - 0.0 - Partly cloudy 10 - - - -
04/11:00pm 22.5 N 6 8 1015.0 - 0.0 - - 10 - - - -
04/10:30pm 22.7 NNW 6 8 1015.0 - 0.0 - - 10 - - - -
04/10:00pm 22.6 NNW 6 7 1015.0 - 0.0 - - 10 - - - -
04/09:30pm 22.7 NNW 5 6 1015.1 - 0.0 - - 10 - - - -
04/09:00pm 23.0 N 5 8 1014.7 - 0.0 - - 10 - - - -
04/08:30pm 23.5 N 9 13 1014.7 - 0.0 - - 10 - - - -
04/08:00pm 23.6 N 11 15 1014.2 - 0.0 - - 10 - - - -
04/07:30pm 23.8 N 13 17 1013.7 - 0.0 - - 10 - - - -
04/07:00pm 24.0 N 15 18 1013.5 - 0.0 - - 10 - - - -
04/06:30pm 23.8 N 13 19 1013.2 - 0.0 - - 10 - - - -
04/06:00pm 24.1 N 13 18 1013.2 - 0.0 - - 10 - - - -
04/05:30pm 24.8 N 15 22 1012.9 - 0.0 - - 10 - - - -
04/05:00pm 25.4 NNE 14 20 1012.9 - 0.0 - - 10 - - - -
04/04:30pm 26.1 NNE 15 20 1012.8 - 0.0 - - 10 - - - -
04/04:00pm 26.8 NNE 16 23 1012.8 - 0.0 - - 10 - - - -
04/03:30pm 27.1 NNE 17 21 1012.8 - 0.0 - - 10 - - - -
04/03:00pm 27.1 NNE 17 22 1012.9 - 0.0 - - 10 - - - -
04/02:30pm 27.3 NNE 17 22 1012.9 - 0.0 - - 10 - - - -
04/02:00pm 27.4 NNE 17 23 1013.2 - 0.0 - - 10 - - - -
04/01:30pm 27.5 NNE 16 21 1013.5 - 0.0 - - 10 - - - -
04/01:00pm 28.2 NNE 17 21 1013.8 - 0.0 - - 10 - - - -
04/12:30pm 28.2 NNE 15 21 1014.1 - 0.0 - - 10 - - - -
04/12:00pm 28.0 NNE 16 21 1014.5 - 0.0 - - 10 - - - -
04/11:30am 28.1 NNE 17 22 1014.8 - 0.0 - Partly cloudy 10 - - - -
04/11:00am 27.9 NNE 14 21 1015.2 - 0.0 - Partly cloudy 10 - - - -
04/10:30am 27.2 NNE 16 19 1015.4 - 0.0 - Partly cloudy 10 - - - -
04/10:00am 27.3 NNE 13 19 1015.7 - 0.0 - Partly cloudy 10 - - - -
04/09:30am 26.9 NNE 13 16 1015.8 - 0.0 - Partly cloudy 10 - - - -
04/09:00am 26.7 NNE 11 15 1015.9 - 8.2 - Mostly cloudy 10 - - - -
04/08:30am 26.2 NNE 10 13 1016.2 - 8.2 - Cloudy 10 - - - -
04/08:00am 26.3 NNE 10 13 1015.9 - 8.2 - Partly cloudy 10 - - - -
04/07:30am 25.6 NNE 9 11 1016.0 - 8.2 - - 10 - - - -
04/07:00am 24.2 NW 4 6 1015.9 - 8.2 - - 10 - - - -
04/06:30am 23.0 W 5 8 1015.7 - 8.2 - - 10 - - - -
04/06:00am 23.2 N 8 10 1015.5 - 8.2 - - 10 - - - -
04/05:30am 22.3 NNE 7 11 1015.4 - 8.2 - - 10 - - - -
04/05:00am 21.7 ENE 7 9 1015.2 - 8.2 - - 10 - - - -
04/04:30am 19.7 ENE 4 6 1013.9 - 8.2 - - 10 - - - -
04/04:00am 20.0 WSW 5 6 1013.3 - 8.2 - - 10 - - - -
04/03:30am 20.0 NW 5 7 1012.7 - 8.2 - - 10 - - - -
04/03:00am 20.3 N 2 4 1012.9 - 8.2 - - 10 - - - -
04/02:30am 20.5 NW 7 10 1012.7 - 8.2 - - 10 - - - -
04/02:00am 20.7 NW 6 8 1013.0 - 8.0 - - 10 - - - -
04/01:30am 21.1 W 6 8 1013.7 - 8.0 - - 10 - - - -
04/01:00am 21.5 W 6 8 1014.1 - 8.0 - - 10 - - - -
04/12:30am 21.8 WNW 8 10 1014.3 - 8.0 - - 10 - - - -
04/12:00am 22.0 NNW 6 8 1014.8 - 8.0 - - 10 - - - -
 
Date/Time
EST
Temp
°C
Wind Pressure Rain since
9am
mm
Weather Cloud Vis
km
Sea
Height
m
Swell
Dir  Spd
kts
Gust
kts
hPa Trend Height
m
Period
s
Dir
03/11:30pm 22.3 NNW 3 4 1015.8 - 8.0 - - 10 - - - -
03/11:00pm 22.5 NW 5 7 1016.2 - 8.0 - Partly cloudy 10 - - - -
03/10:30pm 23.3 W 4 7 1017.1 - 8.0 - Partly cloudy 10 - - - -
03/10:00pm 23.2 SW 6 10 1016.8 - 8.0 - Partly cloudy 10 - - - -
03/09:30pm 23.3 N 17 23 1015.9 - 7.6 - Partly cloudy 8 - - - -
03/09:09pm 23.4 NNE 24 31 1015.4 - 7.2 - Partly cloudy 7 - - - -
03/09:00pm 23.4 NE 21 28 1015.9 - 7.2 - Partly cloudy 7 - - - -
03/08:51pm 23.3 NNE 16 24 1016.5 - 7.0 - Partly cloudy 6 - - - -
03/08:35pm 23.3 NNE 11 14 1018.0 - 6.6 - Partly cloudy 6 - - - -
03/08:30pm 23.3 N 7 11 1018.2 - 6.6 - Partly cloudy 8 - - - -
03/08:00pm 23.4 E 13 17 1016.9 - 6.0 - Partly cloudy 9 - - - -
03/07:54pm 23.4 E 11 15 1017.4 - 5.8 - Partly cloudy 9 - - - -
03/07:47pm 22.9 SE 12 15 1018.0 - 5.6 - Partly cloudy 9 - - - -
03/07:30pm 23.8 S 16 24 1018.1 - 3.0 - Partly cloudy 6 - - - -
03/07:27pm 24.1 S 15 23 1018.1 - 2.4 - Partly cloudy 6 - - - -
03/07:05pm 24.6 SSW 11 13 1017.1 - 0.0 - - 10 - - - -
03/07:00pm 24.5 SSE 5 8 1015.1 - 0.0 - - 10 - - - -
03/06:58pm 24.5 SSE 5 8 1014.7 - 0.0 - - 10 - - - -
03/06:45pm 24.1 NNE 10 19 1012.7 - 0.0 - - 10 - - - -
03/06:30pm 24.1 N 17 23 1010.7 - 0.0 - - 10 - - - -
03/06:00pm 24.2 N 16 22 1010.7 - 0.0 - - 10 - - - -
03/05:48pm 24.4 N 19 29 1010.0 - 0.0 - - 10 - - - -
03/05:30pm 24.9 N 17 23 1010.8 - 0.0 - - 10 - - - -
03/05:00pm 25.7 N 18 23 1010.7 - 0.0 - - 10 - - - -
03/04:30pm 26.2 NNE 18 24 1010.7 - 0.0 - - 10 - - - -
03/04:00pm 26.8 N 17 24 1010.7 - 0.0 - - 10 - - - -
03/03:30pm 27.3 N 17 22 1010.9 - 0.0 - - 10 - - - -
03/03:00pm 28.0 N 17 22 1011.3 - 0.0 - - 10 - - - -
03/02:30pm 27.8 N 17 23 1011.9 - 0.0 - - 10 - - - -
03/02:00pm 27.8 N 18 24 1012.5 - 0.0 - - 10 - - - -
03/01:30pm 28.1 N 15 22 1013.0 - 0.0 - - 10 - - - -
03/01:00pm 28.4 NNE 17 22 1013.3 - 0.0 - - 10 - - - -
03/12:30pm 29.2 NNE 15 19 1013.7 - 0.0 - - 10 - - - -
03/12:00pm 28.3 NNE 16 20 1013.9 - 0.0 - - 10 - - - -
03/11:30am 28.7 NNE 16 20 1014.1 - 0.0 - - 10 - - - -
03/11:00am 28.4 NNE 16 19 1014.5 - 0.0 - - 10 - - - -
03/10:30am 27.9 NNE 14 19 1014.8 - 0.0 - - 10 - - - -
03/10:00am 27.9 NNE 13 18 1015.0 - 0.0 - Partly cloudy 10 - - - -
03/09:30am 26.4 NNE 13 17 1015.3 - 0.0 - Partly cloudy 10 - - - -
03/09:00am 26.4 NNE 11 14 1015.4 - 0.0 - Cloudy 10 - - - -
03/08:30am 25.9 NNE 9 11 1015.3 - 0.0 - Cloudy 10 - - - -
03/08:00am 26.1 N 6 10 1015.2 - 0.0 - Cloudy 10 - - - -
03/07:30am 25.3 NNW 7 10 1015.0 - 0.0 - Cloudy 10 - - - -
03/07:00am 25.5 N 8 11 1014.6 - 0.0 - Cloudy 10 - - - -
03/06:30am 25.0 NNW 7 10 1014.5 - 0.0 - Cloudy 10 - - - -
03/06:00am 24.6 N 7 12 1013.9 - 0.0 - Cloudy 10 - - - -
03/05:30am 24.2 N 6 7 1013.5 - 0.0 - Cloudy 10 - - - -
03/05:00am 24.2 N 7 11 1013.1 - 0.0 - Cloudy 10 - - - -
03/04:45am 24.1 N 6 9 1013.0 - 0.0 - Cloudy 10 - - - -
03/04:30am 24.1 N 6 8 1012.8 - 0.0 - Cloudy 10 - - - -
03/04:00am 24.3 NNW 8 11 1012.4 - 0.0 - Cloudy 10 - - - -
03/03:30am 24.3 NNW 7 11 1012.3 - 0.0 - Cloudy 10 - - - -
03/03:00am 24.3 N 6 9 1012.1 - 0.0 - Cloudy 10 - - - -
03/02:30am 24.2 N 6 8 1011.9 - 0.0 - Cloudy 10 - - - -
03/02:00am 24.2 N 7 9 1012.0 - 0.0 - Cloudy 10 - - - -
03/01:30am 24.2 NNW 7 11 1012.2 - 0.0 - Cloudy 10 - - - -
03/01:00am 24.1 NNW 7 10 1012.3 - 0.0 - Cloudy 10 - - - -

Other Formats:

Comma delimited format used in spreadsheet applications
http://www.bom.gov.au/fwo/IDQ60701/IDQ60701.94569.axf

JavaScript Object Notation format (JSON) in row-major order
http://www.bom.gov.au/fwo/IDQ60701/IDQ60701.94569.json